TimeMDT,TemperatureF,Dew PointF,Humidity,Sea Level PressureIn,VisibilityMPH,Wind Direction,Wind SpeedMPH,Gust SpeedMPH,PrecipitationIn,Events,Conditions,WindDirDegrees,DateUTC
12:53 AM,19.9,12.0,71,30.25,10.0,WSW,8.1,-,N/A,,Scattered Clouds,240,2013-03-23 06:53:00
1:53 AM,18.0,12.0,78,30.27,10.0,West,10.4,-,N/A,,Scattered Clouds,280,2013-03-23 07:53:00
2:53 AM,19.9,12.9,74,30.27,10.0,SW,9.2,-,N/A,,Overcast,220,2013-03-23 08:53:00
3:53 AM,19.0,10.9,71,30.27,10.0,WNW,10.4,-,N/A,,Mostly Cloudy,290,2013-03-23 09:53:00
4:53 AM,17.1,9.0,71,30.27,10.0,WSW,9.2,-,N/A,,Scattered Clouds,250,2013-03-23 10:53:00
5:53 AM,15.1,8.1,74,30.30,10.0,West,5.8,-,N/A,,Partly Cloudy,270,2013-03-23 11:53:00
6:53 AM,16.0,6.1,65,30.33,10.0,West,5.8,-,N/A,,Partly Cloudy,280,2013-03-23 12:53:00
7:53 AM,15.1,5.0,64,30.35,10.0,West,8.1,-,N/A,,Partly Cloudy,260,2013-03-23 13:53:00
8:53 AM,19.0,5.0,54,30.36,10.0,NW,11.5,-,N/A,,Partly Cloudy,310,2013-03-23 14:53:00
9:53 AM,21.9,7.0,53,30.36,10.0,Variable,3.5,-,N/A,,Partly Cloudy,0,2013-03-23 15:53:00
10:53 AM,25.0,3.9,41,30.36,10.0,North,12.7,-,N/A,,Partly Cloudy,10,2013-03-23 16:53:00
11:53 AM,28.0,7.0,41,30.35,10.0,Variable,4.6,-,N/A,,Partly Cloudy,0,2013-03-23 17:53:00
12:53 PM,28.9,6.1,38,30.32,10.0,WNW,3.5,-,N/A,,Partly Cloudy,290,2013-03-23 18:53:00
1:53 PM,32.0,3.0,29,30.30,10.0,WNW,12.7,17.3,N/A,,Partly Cloudy,300,2013-03-23 19:53:00
2:53 PM,33.1,3.0,28,30.27,10.0,NNW,12.7,23.0,N/A,,Partly Cloudy,340,2013-03-23 20:53:00
3:53 PM,32.0,3.9,31,30.27,10.0,NNE,11.5,21.9,N/A,,Mostly Cloudy,30,2013-03-23 21:53:00
4:53 PM,33.1,3.0,28,30.27,10.0,North,17.3,-,N/A,,Mostly Cloudy,10,2013-03-23 22:53:00
5:53 PM,30.9,7.0,37,30.29,10.0,NE,15.0,-,N/A,,Mostly Cloudy,50,2013-03-23 23:53:00
6:53 PM,28.9,6.1,38,30.30,10.0,NE,13.8,-,N/A,,Mostly Cloudy,40,2013-03-24 00:53:00
7:53 PM,28.0,3.9,36,30.32,10.0,NE,10.4,-,N/A,,Mostly Cloudy,50,2013-03-24 01:53:00
8:53 PM,26.1,3.9,39,30.34,10.0,NE,6.9,-,N/A,,Mostly Cloudy,40,2013-03-24 02:53:00
9:53 PM,21.9,10.0,60,30.37,10.0,East,9.2,-,N/A,,Scattered Clouds,80,2013-03-24 03:53:00
10:53 PM,19.9,10.9,68,30.36,10.0,ENE,5.8,-,N/A,,Partly Cloudy,70,2013-03-24 04:53:00
11:53 PM,19.9,10.0,65,30.35,10.0,Calm,Calm,-,N/A,,Clear,0,2013-03-24 05:53:00